This is the latest recevied weather packets stored in our database for station/object F8KHU-13. If no packets are shown the sender has not sent any weather packets the latest 10 day(s).
| Time | Temp. | Humidity | Pressure | Rain* | Wind** | Luminosity | Snow |
|---|---|---|---|---|---|---|---|
| 1777494297 | 17.78° C | 28% | 1024.9 hPa | 0 mm | - | 0 W/m² | - |
| 1777493437 | 18.33° C | 27% | 1024.8 hPa | 0 mm | - | 0 W/m² | - |
| 1777493417 | 18.33° C | 27% | 1024.8 hPa | 0 mm | - | 0 W/m² | - |
| 1777493397 | 18.33° C | 27% | 1024.8 hPa | 0 mm | - | 0 W/m² | - |
| 1777492538 | 18.89° C | 27% | 1024.6 hPa | 0 mm | - | 0 W/m² | - |
| 1777492517 | 18.89° C | 27% | 1024.6 hPa | 0 mm | - | 0 W/m² | - |
| 1777492498 | 18.89° C | 27% | 1024.6 hPa | 0 mm | - | 0 W/m² | - |
| 1777491638 | 19.44° C | 27% | 1024.4 hPa | 0 mm | - | 0 W/m² | - |
| 1777491618 | 19.44° C | 27% | 1024.5 hPa | 0 mm | - | 0 W/m² | - |
| 1777491598 | 19.44° C | 27% | 1024.4 hPa | 0 mm | - | 0 W/m² | - |
| 1777490738 | 20° C | 27% | 1024.3 hPa | 0 mm | - | 0 W/m² | - |
| 1777490718 | 20° C | 27% | 1024.3 hPa | 0 mm | - | 0 W/m² | - |
| 1777490698 | 20° C | 27% | 1024.3 hPa | 0 mm | - | 0 W/m² | - |
| 1777489818 | 20.56° C | 26% | 1024.1 hPa | 0 mm | - | 0 W/m² | - |
| 1777489798 | 20.56° C | 26% | 1024 hPa | 0 mm | - | 0 W/m² | - |
| 1777488938 | 21.67° C | 26% | 1023.9 hPa | 0 mm | - | 0 W/m² | - |
| 1777488918 | 21.67° C | 26% | 1024 hPa | 0 mm | - | 0 W/m² | - |
| 1777488898 | 21.67° C | 26% | 1023.9 hPa | 0 mm | - | 0 W/m² | - |
| 1777488039 | 22.78° C | 26% | 1023.8 hPa | 0 mm | - | 0 W/m² | - |
| 1777488018 | 22.78° C | 26% | 1023.8 hPa | 0 mm | - | 0 W/m² | - |
| 1777487998 | 22.78° C | 26% | 1023.7 hPa | 0 mm | - | 0 W/m² | - |
| 1777487260 | 24.44° C | 25% | 1023.5 hPa | 0 mm | - | 0 W/m² | - |
| 1777487260 | 24.44° C | 25% | 1023.6 hPa | 0 mm | - | 0 W/m² | - |
| 1777487260 | 23.89° C | 25% | 1023.5 hPa | 0 mm | - | 0 W/m² | - |
| 1777487139 | 23.89° C | 25% | 1023.5 hPa | 0 mm | - | 0 W/m² | - |
* Rain latest hour (hover to see other rain measurements)
** Current wind speed in m/s (hover to see current wind gust speed)